sensor_id;sensor_type;location;lat;lon;timestamp;P1;durP1;ratioP1;P2;durP2;ratioP2
7263;SDS011;3673;52.480;13.348;2023-12-20T00:00:24;7.60;;;5.90;;
7263;SDS011;3673;52.480;13.348;2023-12-20T00:02:51;7.20;;;5.75;;
7263;SDS011;3673;52.480;13.348;2023-12-20T00:05:18;6.88;;;5.75;;
7263;SDS011;3673;52.480;13.348;2023-12-20T00:07:45;8.35;;;6.93;;
7263;SDS011;3673;52.480;13.348;2023-12-20T00:10:12;7.35;;;6.25;;
7263;SDS011;3673;52.480;13.348;2023-12-20T00:12:39;5.53;;;4.88;;
7263;SDS011;3673;52.480;13.348;2023-12-20T00:15:06;5.25;;;4.63;;
7263;SDS011;3673;52.480;13.348;2023-12-20T00:17:35;5.13;;;4.65;;
7263;SDS011;3673;52.480;13.348;2023-12-20T00:20:02;6.28;;;5.28;;
7263;SDS011;3673;52.480;13.348;2023-12-20T00:22:31;9.20;;;6.30;;
7263;SDS011;3673;52.480;13.348;2023-12-20T00:24:58;5.45;;;4.95;;
7263;SDS011;3673;52.480;13.348;2023-12-20T00:27:24;7.32;;;4.88;;
7263;SDS011;3673;52.480;13.348;2023-12-20T00:29:51;8.55;;;6.10;;
7263;SDS011;3673;52.480;13.348;2023-12-20T00:32:18;5.35;;;4.80;;
7263;SDS011;3673;52.480;13.348;2023-12-20T00:34:46;5.07;;;4.57;;
7263;SDS011;3673;52.480;13.348;2023-12-20T00:37:13;4.63;;;3.90;;
7263;SDS011;3673;52.480;13.348;2023-12-20T00:39:40;5.75;;;4.97;;
7263;SDS011;3673;52.480;13.348;2023-12-20T00:42:07;4.43;;;4.03;;
7263;SDS011;3673;52.480;13.348;2023-12-20T00:44:34;6.32;;;4.35;;
7263;SDS011;3673;52.480;13.348;2023-12-20T00:47:00;4.30;;;3.90;;
7263;SDS011;3673;52.480;13.348;2023-12-20T00:49:27;4.78;;;4.03;;
7263;SDS011;3673;52.480;13.348;2023-12-20T00:51:58;5.35;;;4.63;;
7263;SDS011;3673;52.480;13.348;2023-12-20T00:54:25;6.47;;;4.70;;
7263;SDS011;3673;52.480;13.348;2023-12-20T00:56:52;4.90;;;4.20;;
7263;SDS011;3673;52.480;13.348;2023-12-20T00:59:19;5.28;;;4.38;;
7263;SDS011;3673;52.480;13.348;2023-12-20T01:01:45;7.05;;;4.45;;
7263;SDS011;3673;52.480;13.348;2023-12-20T01:04:12;6.57;;;5.25;;
7263;SDS011;3673;52.480;13.348;2023-12-20T01:06:39;5.20;;;4.70;;
7263;SDS011;3673;52.480;13.348;2023-12-20T01:09:07;5.13;;;4.63;;
7263;SDS011;3673;52.480;13.348;2023-12-20T01:11:34;4.90;;;4.38;;
7263;SDS011;3673;52.480;13.348;2023-12-20T01:14:01;5.45;;;4.95;;
7263;SDS011;3673;52.480;13.348;2023-12-20T01:16:27;5.07;;;4.57;;
7263;SDS011;3673;52.480;13.348;2023-12-20T01:18:54;5.63;;;4.65;;
7263;SDS011;3673;52.480;13.348;2023-12-20T01:21:21;6.22;;;5.63;;
7263;SDS011;3673;52.480;13.348;2023-12-20T01:23:47;5.93;;;4.85;;
7263;SDS011;3673;52.480;13.348;2023-12-20T01:26:16;5.97;;;5.00;;
7263;SDS011;3673;52.480;13.348;2023-12-20T01:28:42;5.47;;;4.97;;
7263;SDS011;3673;52.480;13.348;2023-12-20T01:31:09;4.93;;;4.28;;
7263;SDS011;3673;52.480;13.348;2023-12-20T01:33:36;6.05;;;5.43;;
7263;SDS011;3673;52.480;13.348;2023-12-20T01:36:03;5.90;;;5.30;;
7263;SDS011;3673;52.480;13.348;2023-12-20T01:38:31;5.20;;;4.38;;
7263;SDS011;3673;52.480;13.348;2023-12-20T01:40:58;5.60;;;4.88;;
7263;SDS011;3673;52.480;13.348;2023-12-20T01:43:26;5.75;;;4.97;;
7263;SDS011;3673;52.480;13.348;2023-12-20T01:45:53;7.93;;;5.88;;
7263;SDS011;3673;52.480;13.348;2023-12-20T01:48:23;5.10;;;4.50;;
7263;SDS011;3673;52.480;13.348;2023-12-20T01:50:50;4.90;;;4.47;;
7263;SDS011;3673;52.480;13.348;2023-12-20T01:53:18;5.13;;;4.60;;
7263;SDS011;3673;52.480;13.348;2023-12-20T01:55:47;5.25;;;4.75;;
7263;SDS011;3673;52.480;13.348;2023-12-20T01:58:16;6.50;;;5.28;;
7263;SDS011;3673;52.480;13.348;2023-12-20T02:00:45;5.32;;;4.43;;
7263;SDS011;3673;52.480;13.348;2023-12-20T02:03:13;5.32;;;4.65;;
7263;SDS011;3673;52.480;13.348;2023-12-20T02:05:40;5.72;;;5.10;;
7263;SDS011;3673;52.480;13.348;2023-12-20T02:08:07;6.38;;;5.60;;
7263;SDS011;3673;52.480;13.348;2023-12-20T02:10:34;6.72;;;4.80;;
7263;SDS011;3673;52.480;13.348;2023-12-20T02:13:00;6.35;;;5.65;;
7263;SDS011;3673;52.480;13.348;2023-12-20T02:15:27;6.57;;;5.97;;
7263;SDS011;3673;52.480;13.348;2023-12-20T02:17:55;7.85;;;6.03;;
7263;SDS011;3673;52.480;13.348;2023-12-20T02:20:22;6.78;;;6.07;;
7263;SDS011;3673;52.480;13.348;2023-12-20T02:22:51;6.82;;;5.90;;
7263;SDS011;3673;52.480;13.348;2023-12-20T02:25:17;6.05;;;5.45;;
7263;SDS011;3673;52.480;13.348;2023-12-20T02:27:44;5.72;;;4.97;;
7263;SDS011;3673;52.480;13.348;2023-12-20T02:30:11;7.93;;;4.97;;
7263;SDS011;3673;52.480;13.348;2023-12-20T02:32:38;6.63;;;5.63;;
7263;SDS011;3673;52.480;13.348;2023-12-20T02:35:05;9.40;;;6.45;;
7263;SDS011;3673;52.480;13.348;2023-12-20T02:37:32;6.90;;;6.20;;
7263;SDS011;3673;52.480;13.348;2023-12-20T02:40:01;8.68;;;7.40;;
7263;SDS011;3673;52.480;13.348;2023-12-20T02:42:29;8.38;;;6.63;;
7263;SDS011;3673;52.480;13.348;2023-12-20T02:44:56;7.95;;;6.22;;
7263;SDS011;3673;52.480;13.348;2023-12-20T02:47:22;8.60;;;6.75;;
7263;SDS011;3673;52.480;13.348;2023-12-20T02:49:49;7.78;;;6.63;;
7263;SDS011;3673;52.480;13.348;2023-12-20T02:52:17;8.27;;;7.03;;
7263;SDS011;3673;52.480;13.348;2023-12-20T02:54:44;8.50;;;6.72;;
7263;SDS011;3673;52.480;13.348;2023-12-20T02:57:13;8.98;;;6.80;;
7263;SDS011;3673;52.480;13.348;2023-12-20T02:59:39;8.70;;;7.22;;
7263;SDS011;3673;52.480;13.348;2023-12-20T03:02:06;8.60;;;6.80;;
7263;SDS011;3673;52.480;13.348;2023-12-20T03:04:33;8.70;;;6.70;;
7263;SDS011;3673;52.480;13.348;2023-12-20T03:07:00;8.13;;;6.25;;
7263;SDS011;3673;52.480;13.348;2023-12-20T03:09:27;10.10;;;6.07;;
7263;SDS011;3673;52.480;13.348;2023-12-20T03:11:53;9.88;;;5.93;;
7263;SDS011;3673;52.480;13.348;2023-12-20T03:14:22;7.40;;;5.50;;
7263;SDS011;3673;52.480;13.348;2023-12-20T03:16:49;6.50;;;5.55;;
7263;SDS011;3673;52.480;13.348;2023-12-20T03:19:16;9.80;;;5.80;;
7263;SDS011;3673;52.480;13.348;2023-12-20T03:21:44;9.77;;;5.43;;
7263;SDS011;3673;52.480;13.348;2023-12-20T03:24:11;9.20;;;5.53;;
7263;SDS011;3673;52.480;13.348;2023-12-20T03:26:38;8.27;;;4.18;;
7263;SDS011;3673;52.480;13.348;2023-12-20T03:29:04;7.95;;;4.53;;
7263;SDS011;3673;52.480;13.348;2023-12-20T03:31:32;5.47;;;4.30;;
7263;SDS011;3673;52.480;13.348;2023-12-20T03:33:59;5.95;;;4.55;;
7263;SDS011;3673;52.480;13.348;2023-12-20T03:36:26;7.07;;;4.82;;
7263;SDS011;3673;52.480;13.348;2023-12-20T03:38:53;5.20;;;4.30;;
7263;SDS011;3673;52.480;13.348;2023-12-20T03:41:19;6.05;;;3.92;;
7263;SDS011;3673;52.480;13.348;2023-12-20T03:43:46;7.85;;;4.43;;
7263;SDS011;3673;52.480;13.348;2023-12-20T03:46:13;8.75;;;4.18;;
7263;SDS011;3673;52.480;13.348;2023-12-20T03:48:41;7.22;;;4.47;;
7263;SDS011;3673;52.480;13.348;2023-12-20T03:51:08;5.70;;;3.70;;
7263;SDS011;3673;52.480;13.348;2023-12-20T03:53:34;4.22;;;3.30;;
7263;SDS011;3673;52.480;13.348;2023-12-20T03:56:01;4.78;;;2.45;;
7263;SDS011;3673;52.480;13.348;2023-12-20T03:58:28;7.05;;;3.13;;
7263;SDS011;3673;52.480;13.348;2023-12-20T04:00:55;9.77;;;2.85;;
7263;SDS011;3673;52.480;13.348;2023-12-20T04:03:22;7.22;;;2.35;;
7263;SDS011;3673;52.480;13.348;2023-12-20T04:05:50;5.40;;;2.42;;
7263;SDS011;3673;52.480;13.348;2023-12-20T04:08:17;6.75;;;3.40;;
7263;SDS011;3673;52.480;13.348;2023-12-20T04:10:44;5.72;;;2.45;;
7263;SDS011;3673;52.480;13.348;2023-12-20T04:13:11;9.50;;;2.60;;
7263;SDS011;3673;52.480;13.348;2023-12-20T04:15:37;7.55;;;2.40;;
7263;SDS011;3673;52.480;13.348;2023-12-20T04:18:04;7.45;;;1.88;;
7263;SDS011;3673;52.480;13.348;2023-12-20T04:20:31;5.95;;;2.38;;
7263;SDS011;3673;52.480;13.348;2023-12-20T04:22:59;9.85;;;3.08;;
7263;SDS011;3673;52.480;13.348;2023-12-20T04:25:26;7.90;;;2.15;;
7263;SDS011;3673;52.480;13.348;2023-12-20T04:27:53;8.82;;;1.98;;
7263;SDS011;3673;52.480;13.348;2023-12-20T04:30:20;7.15;;;2.70;;
7263;SDS011;3673;52.480;13.348;2023-12-20T04:32:47;5.25;;;1.88;;
7263;SDS011;3673;52.480;13.348;2023-12-20T04:35:13;8.30;;;2.08;;
7263;SDS011;3673;52.480;13.348;2023-12-20T04:37:40;11.60;;;2.38;;
7263;SDS011;3673;52.480;13.348;2023-12-20T04:40:08;6.85;;;1.63;;
7263;SDS011;3673;52.480;13.348;2023-12-20T04:42:36;7.07;;;2.28;;
7263;SDS011;3673;52.480;13.348;2023-12-20T04:45:03;4.35;;;1.95;;
7263;SDS011;3673;52.480;13.348;2023-12-20T04:47:31;5.70;;;1.80;;
7263;SDS011;3673;52.480;13.348;2023-12-20T04:49:58;5.82;;;2.00;;
7263;SDS011;3673;52.480;13.348;2023-12-20T04:52:25;12.18;;;2.05;;
7263;SDS011;3673;52.480;13.348;2023-12-20T04:54:52;12.48;;;2.78;;
7263;SDS011;3673;52.480;13.348;2023-12-20T04:57:20;7.20;;;2.13;;
7263;SDS011;3673;52.480;13.348;2023-12-20T04:59:47;4.90;;;1.80;;
7263;SDS011;3673;52.480;13.348;2023-12-20T05:02:14;12.30;;;2.55;;
7263;SDS011;3673;52.480;13.348;2023-12-20T05:04:41;11.40;;;2.78;;
7263;SDS011;3673;52.480;13.348;2023-12-20T05:07:08;9.23;;;2.20;;
7263;SDS011;3673;52.480;13.348;2023-12-20T05:09:34;10.90;;;2.72;;
7263;SDS011;3673;52.480;13.348;2023-12-20T05:12:02;8.55;;;2.25;;
7263;SDS011;3673;52.480;13.348;2023-12-20T05:14:30;10.75;;;2.20;;
7263;SDS011;3673;52.480;13.348;2023-12-20T05:16:57;7.85;;;2.28;;
7263;SDS011;3673;52.480;13.348;2023-12-20T05:19:24;11.80;;;2.65;;
7263;SDS011;3673;52.480;13.348;2023-12-20T05:21:51;6.75;;;2.13;;
7263;SDS011;3673;52.480;13.348;2023-12-20T05:24:18;14.65;;;2.08;;
7263;SDS011;3673;52.480;13.348;2023-12-20T05:26:45;11.73;;;1.67;;
7263;SDS011;3673;52.480;13.348;2023-12-20T05:29:12;10.25;;;2.97;;
7263;SDS011;3673;52.480;13.348;2023-12-20T05:31:40;19.42;;;4.70;;
7263;SDS011;3673;52.480;13.348;2023-12-20T05:34:07;9.43;;;2.35;;
7263;SDS011;3673;52.480;13.348;2023-12-20T05:36:33;12.15;;;1.92;;
7263;SDS011;3673;52.480;13.348;2023-12-20T05:39:00;16.30;;;4.50;;
7263;SDS011;3673;52.480;13.348;2023-12-20T05:41:28;8.00;;;2.35;;
7263;SDS011;3673;52.480;13.348;2023-12-20T05:43:55;12.77;;;1.98;;
7263;SDS011;3673;52.480;13.348;2023-12-20T05:46:22;13.25;;;3.20;;
7263;SDS011;3673;52.480;13.348;2023-12-20T05:48:50;7.60;;;1.63;;
7263;SDS011;3673;52.480;13.348;2023-12-20T05:51:17;9.88;;;2.50;;
7263;SDS011;3673;52.480;13.348;2023-12-20T05:53:44;6.53;;;1.70;;
7263;SDS011;3673;52.480;13.348;2023-12-20T05:56:11;9.32;;;2.13;;
7263;SDS011;3673;52.480;13.348;2023-12-20T05:58:38;9.48;;;1.75;;
7263;SDS011;3673;52.480;13.348;2023-12-20T06:01:05;6.32;;;1.50;;
7263;SDS011;3673;52.480;13.348;2023-12-20T06:03:33;8.30;;;1.80;;
7263;SDS011;3673;52.480;13.348;2023-12-20T06:06:05;15.25;;;3.00;;
7263;SDS011;3673;52.480;13.348;2023-12-20T06:08:34;10.75;;;3.20;;
7263;SDS011;3673;52.480;13.348;2023-12-20T06:11:02;9.40;;;2.50;;
7263;SDS011;3673;52.480;13.348;2023-12-20T06:13:29;11.25;;;1.90;;
7263;SDS011;3673;52.480;13.348;2023-12-20T06:15:56;6.90;;;1.30;;
7263;SDS011;3673;52.480;13.348;2023-12-20T06:18:23;10.52;;;1.77;;
7263;SDS011;3673;52.480;13.348;2023-12-20T06:20:50;15.27;;;2.40;;
7263;SDS011;3673;52.480;13.348;2023-12-20T06:23:18;14.90;;;5.78;;
7263;SDS011;3673;52.480;13.348;2023-12-20T06:25:44;8.70;;;2.13;;
7263;SDS011;3673;52.480;13.348;2023-12-20T06:28:11;11.02;;;1.95;;
7263;SDS011;3673;52.480;13.348;2023-12-20T06:30:39;11.38;;;2.00;;
7263;SDS011;3673;52.480;13.348;2023-12-20T06:33:06;6.38;;;2.65;;
7263;SDS011;3673;52.480;13.348;2023-12-20T06:35:34;9.25;;;1.55;;
7263;SDS011;3673;52.480;13.348;2023-12-20T06:38:01;9.45;;;1.77;;
7263;SDS011;3673;52.480;13.348;2023-12-20T06:40:30;6.85;;;1.50;;
7263;SDS011;3673;52.480;13.348;2023-12-20T06:42:56;9.43;;;2.72;;
7263;SDS011;3673;52.480;13.348;2023-12-20T06:45:24;7.68;;;1.70;;
7263;SDS011;3673;52.480;13.348;2023-12-20T06:47:51;15.50;;;1.95;;
7263;SDS011;3673;52.480;13.348;2023-12-20T06:50:19;11.25;;;2.38;;
7263;SDS011;3673;52.480;13.348;2023-12-20T06:52:46;2.95;;;1.70;;
7263;SDS011;3673;52.480;13.348;2023-12-20T06:55:13;10.52;;;2.45;;
7263;SDS011;3673;52.480;13.348;2023-12-20T06:57:41;12.40;;;3.03;;
7263;SDS011;3673;52.480;13.348;2023-12-20T07:00:08;5.13;;;2.05;;
7263;SDS011;3673;52.480;13.348;2023-12-20T07:02:37;6.05;;;2.15;;
7263;SDS011;3673;52.480;13.348;2023-12-20T07:05:04;14.77;;;2.97;;
7263;SDS011;3673;52.480;13.348;2023-12-20T07:07:31;12.35;;;3.28;;
7263;SDS011;3673;52.480;13.348;2023-12-20T07:09:58;8.27;;;2.88;;
7263;SDS011;3673;52.480;13.348;2023-12-20T07:12:25;6.32;;;2.00;;
7263;SDS011;3673;52.480;13.348;2023-12-20T07:14:53;13.80;;;2.08;;
7263;SDS011;3673;52.480;13.348;2023-12-20T07:17:21;10.15;;;2.00;;
7263;SDS011;3673;52.480;13.348;2023-12-20T07:19:48;7.90;;;2.47;;
7263;SDS011;3673;52.480;13.348;2023-12-20T07:22:14;5.97;;;1.95;;
7263;SDS011;3673;52.480;13.348;2023-12-20T07:24:41;7.20;;;1.77;;
7263;SDS011;3673;52.480;13.348;2023-12-20T07:27:08;10.88;;;2.25;;
7263;SDS011;3673;52.480;13.348;2023-12-20T07:29:34;14.23;;;3.25;;
7263;SDS011;3673;52.480;13.348;2023-12-20T07:32:03;11.98;;;2.40;;
7263;SDS011;3673;52.480;13.348;2023-12-20T07:34:30;10.02;;;3.47;;
7263;SDS011;3673;52.480;13.348;2023-12-20T07:36:57;21.98;;;5.65;;
7263;SDS011;3673;52.480;13.348;2023-12-20T07:39:24;25.90;;;10.45;;
7263;SDS011;3673;52.480;13.348;2023-12-20T07:41:50;14.35;;;4.40;;
7263;SDS011;3673;52.480;13.348;2023-12-20T07:44:17;8.90;;;2.33;;
7263;SDS011;3673;52.480;13.348;2023-12-20T07:46:44;12.52;;;2.17;;
7263;SDS011;3673;52.480;13.348;2023-12-20T07:49:12;16.48;;;4.88;;
7263;SDS011;3673;52.480;13.348;2023-12-20T07:51:39;9.20;;;1.70;;
7263;SDS011;3673;52.480;13.348;2023-12-20T07:54:06;8.85;;;2.10;;
7263;SDS011;3673;52.480;13.348;2023-12-20T07:56:33;14.75;;;3.08;;
7263;SDS011;3673;52.480;13.348;2023-12-20T07:58:59;10.90;;;2.70;;
7263;SDS011;3673;52.480;13.348;2023-12-20T08:01:26;8.02;;;1.90;;
7263;SDS011;3673;52.480;13.348;2023-12-20T08:03:53;8.73;;;1.50;;
7263;SDS011;3673;52.480;13.348;2023-12-20T08:06:21;11.25;;;1.77;;
7263;SDS011;3673;52.480;13.348;2023-12-20T08:08:48;5.28;;;2.15;;
7263;SDS011;3673;52.480;13.348;2023-12-20T08:11:15;11.40;;;2.42;;
7263;SDS011;3673;52.480;13.348;2023-12-20T08:13:42;8.55;;;1.70;;
7263;SDS011;3673;52.480;13.348;2023-12-20T08:16:09;10.38;;;3.10;;
7263;SDS011;3673;52.480;13.348;2023-12-20T08:18:38;8.82;;;2.25;;
7263;SDS011;3673;52.480;13.348;2023-12-20T08:21:04;12.30;;;1.95;;
7263;SDS011;3673;52.480;13.348;2023-12-20T08:23:34;10.70;;;1.88;;
7263;SDS011;3673;52.480;13.348;2023-12-20T08:26:03;6.53;;;1.50;;
7263;SDS011;3673;52.480;13.348;2023-12-20T08:28:31;9.25;;;2.65;;
7263;SDS011;3673;52.480;13.348;2023-12-20T08:30:58;14.77;;;2.33;;
7263;SDS011;3673;52.480;13.348;2023-12-20T08:33:25;10.68;;;1.80;;
7263;SDS011;3673;52.480;13.348;2023-12-20T08:35:51;11.38;;;2.13;;
7263;SDS011;3673;52.480;13.348;2023-12-20T08:38:18;12.75;;;1.92;;
7263;SDS011;3673;52.480;13.348;2023-12-20T08:40:46;7.07;;;2.08;;
7263;SDS011;3673;52.480;13.348;2023-12-20T08:43:14;7.85;;;2.28;;
7263;SDS011;3673;52.480;13.348;2023-12-20T08:45:40;12.52;;;1.98;;
7263;SDS011;3673;52.480;13.348;2023-12-20T08:48:07;6.05;;;1.85;;
7263;SDS011;3673;52.480;13.348;2023-12-20T08:50:34;7.40;;;2.08;;
7263;SDS011;3673;52.480;13.348;2023-12-20T08:53:01;9.15;;;2.17;;
7263;SDS011;3673;52.480;13.348;2023-12-20T08:55:28;10.15;;;1.85;;
7263;SDS011;3673;52.480;13.348;2023-12-20T08:57:57;6.90;;;2.28;;
7263;SDS011;3673;52.480;13.348;2023-12-20T09:00:24;7.53;;;1.90;;
7263;SDS011;3673;52.480;13.348;2023-12-20T09:02:52;12.52;;;1.95;;
7263;SDS011;3673;52.480;13.348;2023-12-20T09:05:20;5.50;;;1.70;;
7263;SDS011;3673;52.480;13.348;2023-12-20T09:07:47;10.27;;;2.28;;
7263;SDS011;3673;52.480;13.348;2023-12-20T09:10:14;7.15;;;1.75;;
7263;SDS011;3673;52.480;13.348;2023-12-20T09:12:40;11.50;;;2.30;;
7263;SDS011;3673;52.480;13.348;2023-12-20T09:15:09;8.63;;;1.50;;
7263;SDS011;3673;52.480;13.348;2023-12-20T09:17:35;9.82;;;1.95;;
7263;SDS011;3673;52.480;13.348;2023-12-20T09:20:02;13.30;;;2.63;;
7263;SDS011;3673;52.480;13.348;2023-12-20T09:22:31;8.60;;;2.97;;
7263;SDS011;3673;52.480;13.348;2023-12-20T09:24:58;11.88;;;1.92;;
7263;SDS011;3673;52.480;13.348;2023-12-20T09:27:25;11.20;;;2.45;;
7263;SDS011;3673;52.480;13.348;2023-12-20T09:29:52;12.63;;;6.20;;
7263;SDS011;3673;52.480;13.348;2023-12-20T09:32:20;8.70;;;2.22;;
7263;SDS011;3673;52.480;13.348;2023-12-20T09:34:47;11.35;;;2.25;;
7263;SDS011;3673;52.480;13.348;2023-12-20T09:37:14;10.38;;;1.90;;
7263;SDS011;3673;52.480;13.348;2023-12-20T09:39:41;8.15;;;1.80;;
7263;SDS011;3673;52.480;13.348;2023-12-20T09:42:08;10.30;;;2.25;;
7263;SDS011;3673;52.480;13.348;2023-12-20T09:44:43;9.02;;;2.17;;
7263;SDS011;3673;52.480;13.348;2023-12-20T09:47:09;9.73;;;1.95;;
7263;SDS011;3673;52.480;13.348;2023-12-20T09:49:38;4.93;;;1.90;;
7263;SDS011;3673;52.480;13.348;2023-12-20T09:52:05;15.52;;;2.65;;
7263;SDS011;3673;52.480;13.348;2023-12-20T09:54:35;9.93;;;2.72;;
7263;SDS011;3673;52.480;13.348;2023-12-20T09:57:02;8.32;;;2.10;;
7263;SDS011;3673;52.480;13.348;2023-12-20T09:59:29;5.40;;;2.00;;
7263;SDS011;3673;52.480;13.348;2023-12-20T10:01:56;7.97;;;1.92;;
7263;SDS011;3673;52.480;13.348;2023-12-20T10:04:23;9.68;;;2.53;;
7263;SDS011;3673;52.480;13.348;2023-12-20T10:06:52;8.93;;;2.55;;
7263;SDS011;3673;52.480;13.348;2023-12-20T10:09:18;7.93;;;2.38;;
7263;SDS011;3673;52.480;13.348;2023-12-20T10:11:45;10.25;;;2.95;;
7263;SDS011;3673;52.480;13.348;2023-12-20T10:14:12;6.78;;;2.20;;
7263;SDS011;3673;52.480;13.348;2023-12-20T10:16:39;7.57;;;1.50;;
7263;SDS011;3673;52.480;13.348;2023-12-20T10:19:07;7.90;;;1.80;;
7263;SDS011;3673;52.480;13.348;2023-12-20T10:21:34;11.90;;;2.03;;
7263;SDS011;3673;52.480;13.348;2023-12-20T10:24:02;6.05;;;2.58;;
7263;SDS011;3673;52.480;13.348;2023-12-20T10:26:30;10.07;;;2.45;;
7263;SDS011;3673;52.480;13.348;2023-12-20T10:28:59;17.05;;;2.80;;
7263;SDS011;3673;52.480;13.348;2023-12-20T10:31:28;9.98;;;1.67;;
7263;SDS011;3673;52.480;13.348;2023-12-20T10:33:57;12.45;;;2.25;;
7263;SDS011;3673;52.480;13.348;2023-12-20T10:36:25;5.85;;;2.35;;
7263;SDS011;3673;52.480;13.348;2023-12-20T10:38:53;7.97;;;2.08;;
7263;SDS011;3673;52.480;13.348;2023-12-20T10:41:24;7.47;;;1.65;;
7263;SDS011;3673;52.480;13.348;2023-12-20T10:43:54;8.68;;;2.78;;
7263;SDS011;3673;52.480;13.348;2023-12-20T10:46:24;11.95;;;2.47;;
7263;SDS011;3673;52.480;13.348;2023-12-20T10:48:53;8.25;;;2.00;;
7263;SDS011;3673;52.480;13.348;2023-12-20T10:51:21;9.43;;;1.90;;
7263;SDS011;3673;52.480;13.348;2023-12-20T10:53:49;9.45;;;2.03;;
7263;SDS011;3673;52.480;13.348;2023-12-20T10:56:18;17.02;;;2.28;;
7263;SDS011;3673;52.480;13.348;2023-12-20T10:58:48;9.80;;;2.60;;
7263;SDS011;3673;52.480;13.348;2023-12-20T11:01:15;9.75;;;2.03;;
7263;SDS011;3673;52.480;13.348;2023-12-20T11:03:44;11.52;;;2.22;;
7263;SDS011;3673;52.480;13.348;2023-12-20T11:06:19;12.48;;;2.60;;
7263;SDS011;3673;52.480;13.348;2023-12-20T11:08:58;7.35;;;2.40;;
7263;SDS011;3673;52.480;13.348;2023-12-20T11:11:40;8.55;;;2.22;;
7263;SDS011;3673;52.480;13.348;2023-12-20T11:14:31;9.35;;;2.17;;
7263;SDS011;3673;52.480;13.348;2023-12-20T11:17:08;12.95;;;2.92;;
7263;SDS011;3673;52.480;13.348;2023-12-20T11:19:36;7.55;;;2.53;;
7263;SDS011;3673;52.480;13.348;2023-12-20T11:22:09;10.02;;;2.20;;
7263;SDS011;3673;52.480;13.348;2023-12-20T11:24:38;9.35;;;2.35;;
7263;SDS011;3673;52.480;13.348;2023-12-20T11:27:12;6.82;;;1.95;;
7263;SDS011;3673;52.480;13.348;2023-12-20T11:29:40;11.80;;;2.45;;
7263;SDS011;3673;52.480;13.348;2023-12-20T11:34:55;13.77;;;2.83;;
7263;SDS011;3673;52.480;13.348;2023-12-20T11:37:28;7.32;;;2.10;;
7263;SDS011;3673;52.480;13.348;2023-12-20T11:40:00;14.65;;;3.70;;
7263;SDS011;3673;52.480;13.348;2023-12-20T11:42:29;8.48;;;2.47;;
7263;SDS011;3673;52.480;13.348;2023-12-20T11:45:00;6.38;;;2.28;;
7263;SDS011;3673;52.480;13.348;2023-12-20T11:47:29;10.48;;;1.95;;
7263;SDS011;3673;52.480;13.348;2023-12-20T11:49:56;6.85;;;2.70;;
7263;SDS011;3673;52.480;13.348;2023-12-20T11:52:25;10.10;;;2.25;;
7263;SDS011;3673;52.480;13.348;2023-12-20T11:54:52;10.68;;;2.03;;
7263;SDS011;3673;52.480;13.348;2023-12-20T11:57:18;12.30;;;2.35;;
7263;SDS011;3673;52.480;13.348;2023-12-20T11:59:45;10.93;;;2.42;;
7263;SDS011;3673;52.480;13.348;2023-12-20T12:02:14;10.38;;;1.98;;
7263;SDS011;3673;52.480;13.348;2023-12-20T12:04:41;11.88;;;2.75;;
7263;SDS011;3673;52.480;13.348;2023-12-20T12:07:08;13.68;;;2.95;;
7263;SDS011;3673;52.480;13.348;2023-12-20T12:09:34;8.00;;;1.65;;
7263;SDS011;3673;52.480;13.348;2023-12-20T12:12:01;13.57;;;3.00;;
7263;SDS011;3673;52.480;13.348;2023-12-20T12:14:29;12.35;;;2.47;;
7263;SDS011;3673;52.480;13.348;2023-12-20T12:16:55;6.07;;;2.08;;
7263;SDS011;3673;52.480;13.348;2023-12-20T12:19:24;3.63;;;2.15;;
7263;SDS011;3673;52.480;13.348;2023-12-20T12:22:03;7.22;;;2.13;;
7263;SDS011;3673;52.480;13.348;2023-12-20T12:24:32;10.60;;;1.73;;
7263;SDS011;3673;52.480;13.348;2023-12-20T12:26:59;5.97;;;1.90;;
7263;SDS011;3673;52.480;13.348;2023-12-20T12:29:25;6.82;;;2.30;;
7263;SDS011;3673;52.480;13.348;2023-12-20T12:31:53;7.97;;;2.13;;
7263;SDS011;3673;52.480;13.348;2023-12-20T12:34:20;9.85;;;4.60;;
7263;SDS011;3673;52.480;13.348;2023-12-20T12:36:49;9.55;;;3.08;;
7263;SDS011;3673;52.480;13.348;2023-12-20T12:39:17;10.73;;;2.75;;
7263;SDS011;3673;52.480;13.348;2023-12-20T12:41:44;7.28;;;2.05;;
7263;SDS011;3673;52.480;13.348;2023-12-20T12:44:11;5.05;;;1.92;;
7263;SDS011;3673;52.480;13.348;2023-12-20T12:46:37;10.93;;;2.25;;
7263;SDS011;3673;52.480;13.348;2023-12-20T12:49:04;12.77;;;2.17;;
7263;SDS011;3673;52.480;13.348;2023-12-20T12:51:31;8.75;;;2.78;;
7263;SDS011;3673;52.480;13.348;2023-12-20T12:53:59;9.95;;;2.65;;
7263;SDS011;3673;52.480;13.348;2023-12-20T12:56:26;9.93;;;2.58;;
7263;SDS011;3673;52.480;13.348;2023-12-20T12:58:53;12.50;;;3.13;;
7263;SDS011;3673;52.480;13.348;2023-12-20T13:01:20;12.52;;;2.55;;
7263;SDS011;3673;52.480;13.348;2023-12-20T13:03:47;6.93;;;3.05;;
7263;SDS011;3673;52.480;13.348;2023-12-20T13:06:13;10.23;;;2.75;;
7263;SDS011;3673;52.480;13.348;2023-12-20T13:08:40;11.07;;;2.88;;
7263;SDS011;3673;52.480;13.348;2023-12-20T13:11:08;10.13;;;2.90;;
7263;SDS011;3673;52.480;13.348;2023-12-20T13:13:35;13.23;;;2.88;;
7263;SDS011;3673;52.480;13.348;2023-12-20T13:16:02;9.10;;;2.85;;
7263;SDS011;3673;52.480;13.348;2023-12-20T13:18:29;15.05;;;4.00;;
7263;SDS011;3673;52.480;13.348;2023-12-20T13:20:56;7.40;;;3.17;;
7263;SDS011;3673;52.480;13.348;2023-12-20T13:23:23;9.07;;;3.88;;
7263;SDS011;3673;52.480;13.348;2023-12-20T13:25:50;5.30;;;2.70;;
7263;SDS011;3673;52.480;13.348;2023-12-20T13:28:18;7.47;;;2.63;;
7263;SDS011;3673;52.480;13.348;2023-12-20T13:30:45;4.65;;;1.90;;
7263;SDS011;3673;52.480;13.348;2023-12-20T13:33:12;9.13;;;4.85;;
7263;SDS011;3673;52.480;13.348;2023-12-20T13:35:38;6.32;;;1.88;;
7263;SDS011;3673;52.480;13.348;2023-12-20T13:38:05;3.20;;;1.52;;
7263;SDS011;3673;52.480;13.348;2023-12-20T13:40:32;5.75;;;2.20;;
7263;SDS011;3673;52.480;13.348;2023-12-20T13:42:59;6.20;;;1.25;;
7263;SDS011;3673;52.480;13.348;2023-12-20T13:45:29;3.83;;;1.33;;
7263;SDS011;3673;52.480;13.348;2023-12-20T13:47:56;5.18;;;2.03;;
7263;SDS011;3673;52.480;13.348;2023-12-20T13:50:24;2.88;;;1.83;;
7263;SDS011;3673;52.480;13.348;2023-12-20T13:52:52;5.07;;;1.52;;
7263;SDS011;3673;52.480;13.348;2023-12-20T13:55:19;6.63;;;1.88;;
7263;SDS011;3673;52.480;13.348;2023-12-20T13:57:47;5.03;;;1.33;;
7263;SDS011;3673;52.480;13.348;2023-12-20T14:00:14;5.22;;;1.92;;
7263;SDS011;3673;52.480;13.348;2023-12-20T14:02:43;2.40;;;1.35;;
7263;SDS011;3673;52.480;13.348;2023-12-20T14:05:11;4.57;;;1.60;;
7263;SDS011;3673;52.480;13.348;2023-12-20T14:07:39;1.52;;;0.98;;
7263;SDS011;3673;52.480;13.348;2023-12-20T14:10:07;1.10;;;1.00;;
7263;SDS011;3673;52.480;13.348;2023-12-20T14:12:35;3.00;;;1.00;;
7263;SDS011;3673;52.480;13.348;2023-12-20T14:15:03;2.40;;;1.77;;
7263;SDS011;3673;52.480;13.348;2023-12-20T14:17:34;3.72;;;0.80;;
7263;SDS011;3673;52.480;13.348;2023-12-20T14:20:02;2.22;;;1.23;;
7263;SDS011;3673;52.480;13.348;2023-12-20T14:22:31;1.85;;;0.80;;
7263;SDS011;3673;52.480;13.348;2023-12-20T14:24:58;1.73;;;0.60;;
7263;SDS011;3673;52.480;13.348;2023-12-20T14:27:25;3.22;;;0.68;;
7263;SDS011;3673;52.480;13.348;2023-12-20T14:29:53;3.70;;;0.65;;
7263;SDS011;3673;52.480;13.348;2023-12-20T14:32:20;4.72;;;2.40;;
7263;SDS011;3673;52.480;13.348;2023-12-20T14:34:47;2.83;;;1.05;;
7263;SDS011;3673;52.480;13.348;2023-12-20T14:37:15;0.52;;;0.52;;
7263;SDS011;3673;52.480;13.348;2023-12-20T14:39:42;7.43;;;3.38;;
7263;SDS011;3673;52.480;13.348;2023-12-20T14:42:09;4.72;;;1.65;;
7263;SDS011;3673;52.480;13.348;2023-12-20T14:44:38;8.70;;;5.75;;
7263;SDS011;3673;52.480;13.348;2023-12-20T14:47:05;2.65;;;1.05;;
7263;SDS011;3673;52.480;13.348;2023-12-20T14:49:33;6.88;;;3.85;;
7263;SDS011;3673;52.480;13.348;2023-12-20T14:51:59;4.15;;;2.45;;
7263;SDS011;3673;52.480;13.348;2023-12-20T14:54:27;5.15;;;1.45;;
7263;SDS011;3673;52.480;13.348;2023-12-20T14:56:54;3.55;;;1.27;;
7263;SDS011;3673;52.480;13.348;2023-12-20T14:59:21;5.63;;;1.65;;
7263;SDS011;3673;52.480;13.348;2023-12-20T15:01:48;7.30;;;2.65;;